createdAt,value
2022-08-17T00:02:25.494Z,17.86
2022-08-17T00:05:31.538Z,17.82
2022-08-17T00:08:39.427Z,17.75
2022-08-17T00:11:44.067Z,17.74
2022-08-17T00:15:06.691Z,17.71
2022-08-17T00:19:02.099Z,17.70
2022-08-17T00:22:30.842Z,17.64
2022-08-17T00:24:59.338Z,17.64
2022-08-17T00:28:02.099Z,17.58
2022-08-17T00:31:04.112Z,17.57
2022-08-17T00:34:08.733Z,17.57
2022-08-17T00:37:10.436Z,17.55
2022-08-17T00:40:15.172Z,17.51
2022-08-17T00:43:39.801Z,17.51
2022-08-17T00:46:43.774Z,17.49
2022-08-17T00:49:45.606Z,17.45
2022-08-17T00:52:54.956Z,17.42
2022-08-17T00:55:59.301Z,17.39
2022-08-17T00:59:02.600Z,17.36
2022-08-17T01:02:06.303Z,17.32
2022-08-17T01:05:09.370Z,17.29
2022-08-17T01:08:14.995Z,17.28
2022-08-17T01:11:17.223Z,17.24
2022-08-17T01:14:21.477Z,17.20
2022-08-17T01:17:23.222Z,17.14
2022-08-17T01:20:25.160Z,17.08
2022-08-17T01:23:28.836Z,17.05
2022-08-17T01:26:33.085Z,17.01
2022-08-17T01:29:36.844Z,16.98
2022-08-17T01:32:39.327Z,16.96
2022-08-17T01:35:41.026Z,16.92
2022-08-17T01:38:42.747Z,16.90
2022-08-17T01:41:46.489Z,16.92
2022-08-17T01:44:49.493Z,16.89
2022-08-17T01:47:52.286Z,16.88
2022-08-17T01:50:54.587Z,16.87
2022-08-17T01:54:00.296Z,16.89
2022-08-17T01:57:02.586Z,16.86
2022-08-17T02:00:09.518Z,16.84
2022-08-17T02:03:13.025Z,16.81
2022-08-17T02:06:28.077Z,16.80
2022-08-17T02:09:31.644Z,16.78
2022-08-17T02:12:39.149Z,16.76
2022-08-17T02:15:41.527Z,16.75
2022-08-17T02:18:43.428Z,16.65
2022-08-17T02:21:52.086Z,16.59
2022-08-17T02:24:58.865Z,16.50
2022-08-17T02:28:04.236Z,16.40
2022-08-17T02:31:08.826Z,16.36
2022-08-17T02:34:10.979Z,16.30
2022-08-17T02:37:13.194Z,16.23
2022-08-17T02:40:15.720Z,16.16
2022-08-17T02:43:30.318Z,16.08
2022-08-17T02:46:32.449Z,16.03
2022-08-17T02:49:34.244Z,16.09
2022-08-17T02:52:43.831Z,16.11
2022-08-17T02:55:45.904Z,16.14
2022-08-17T02:58:47.616Z,16.14
2022-08-17T03:01:49.446Z,16.14
2022-08-17T03:04:51.198Z,16.15
2022-08-17T03:07:52.999Z,16.12
2022-08-17T03:10:55.091Z,16.10
2022-08-17T03:13:57.450Z,16.07
2022-08-17T03:16:59.376Z,16.06
2022-08-17T03:20:01.274Z,16.03
2022-08-17T03:23:04.008Z,15.91
2022-08-17T03:26:12.386Z,15.83
2022-08-17T03:29:19.246Z,15.75
2022-08-17T03:32:21.365Z,15.73
2022-08-17T03:35:25.688Z,15.75
2022-08-17T03:38:27.526Z,15.76
2022-08-17T03:41:29.246Z,15.76
2022-08-17T03:44:30.985Z,15.76
2022-08-17T03:47:51.305Z,15.75
2022-08-17T03:51:14.789Z,15.73
2022-08-17T03:54:35.597Z,15.73
2022-08-17T03:57:37.805Z,15.70
2022-08-17T04:00:40.506Z,15.68
2022-08-17T04:03:42.251Z,15.70
2022-08-17T04:06:44.923Z,15.72
2022-08-17T04:09:47.134Z,15.81
2022-08-17T04:12:54.622Z,15.89
2022-08-17T04:15:57.331Z,15.99
2022-08-17T04:18:59.074Z,16.60
2022-08-17T04:22:00.970Z,17.40
2022-08-17T04:25:17.015Z,18.02
2022-08-17T04:28:20.025Z,18.54
2022-08-17T04:31:21.822Z,18.91
2022-08-17T04:34:25.122Z,18.75
2022-08-17T04:37:27.001Z,18.55
2022-08-17T04:40:47.400Z,18.32
2022-08-17T04:43:50.698Z,18.17
2022-08-17T04:46:52.435Z,17.91
2022-08-17T04:49:54.177Z,17.75
2022-08-17T04:52:56.214Z,17.65
2022-08-17T04:55:59.139Z,17.53
2022-08-17T04:59:04.326Z,17.44
2022-08-17T05:02:06.027Z,17.55
2022-08-17T05:05:08.173Z,17.57
2022-08-17T05:08:11.219Z,17.61
2022-08-17T05:11:13.820Z,17.67
2022-08-17T05:14:15.933Z,17.69
2022-08-17T05:17:17.647Z,17.81
2022-08-17T05:20:19.373Z,17.92
2022-08-17T05:23:23.694Z,17.91
2022-08-17T05:26:27.720Z,18.00
2022-08-17T05:29:35.295Z,18.19
2022-08-17T05:32:40.359Z,18.38
2022-08-17T05:35:47.079Z,18.68
2022-08-17T05:38:48.831Z,18.95
2022-08-17T05:41:50.624Z,19.06
2022-08-17T05:44:52.889Z,19.23
2022-08-17T05:47:54.665Z,19.57
2022-08-17T05:51:11.885Z,19.91
2022-08-17T05:54:48.718Z,20.14
2022-08-17T05:58:05.658Z,20.38
2022-08-17T06:01:29.271Z,20.50
2022-08-17T06:04:55.837Z,20.67
2022-08-17T06:08:07.548Z,20.93
2022-08-17T06:11:20.888Z,21.27
2022-08-17T06:14:53.470Z,21.51
2022-08-17T06:18:01.586Z,21.75
2022-08-17T06:21:07.153Z,21.86
2022-08-17T06:24:17.643Z,22.03
2022-08-17T06:27:55.779Z,21.92
2022-08-17T06:31:03.246Z,21.95
2022-08-17T06:34:09.599Z,22.11
2022-08-17T06:37:29.585Z,22.47
2022-08-17T06:41:05.329Z,22.85
2022-08-17T06:44:44.748Z,22.82
2022-08-17T06:47:46.725Z,22.97
2022-08-17T06:50:54.710Z,23.12
2022-08-17T06:54:11.666Z,23.24
2022-08-17T06:57:16.654Z,23.31
2022-08-17T07:00:26.490Z,23.35
2022-08-17T07:03:37.786Z,23.47
2022-08-17T07:07:00.757Z,23.89
2022-08-17T07:10:02.674Z,24.09
2022-08-17T07:13:22.917Z,23.71
2022-08-17T07:16:32.475Z,23.82
2022-08-17T07:19:40.564Z,24.21
2022-08-17T07:22:53.570Z,24.47
2022-08-17T07:26:06.809Z,24.87
2022-08-17T07:29:10.264Z,25.14
2022-08-17T07:32:18.466Z,24.98
2022-08-17T07:35:37.942Z,24.84
2022-08-17T07:38:56.641Z,24.92
2022-08-17T07:42:05.103Z,24.99
2022-08-17T07:45:27.685Z,25.16
2022-08-17T07:48:29.423Z,25.41
2022-08-17T07:51:40.726Z,25.45
2022-08-17T07:54:43.077Z,25.77
2022-08-17T07:57:55.682Z,26.12
2022-08-17T08:01:08.086Z,26.49
2022-08-17T08:07:57.247Z,26.61
2022-08-17T08:11:07.153Z,26.64
2022-08-17T08:14:34.030Z,27.01
2022-08-17T08:17:50.089Z,27.22
2022-08-17T08:20:55.427Z,27.37
2022-08-17T08:24:22.622Z,27.32
2022-08-17T08:28:01.602Z,27.60
2022-08-17T08:31:20.638Z,27.96
2022-08-17T08:35:02.217Z,28.10
2022-08-17T08:38:28.580Z,28.29
2022-08-17T08:41:50.454Z,28.22
2022-08-17T08:44:59.926Z,28.31
2022-08-17T08:48:53.043Z,28.64
2022-08-17T08:51:58.537Z,29.25
2022-08-17T08:55:35.505Z,29.47
2022-08-17T08:58:51.225Z,29.29
2022-08-17T09:02:19.994Z,29.48
2022-08-17T09:05:42.727Z,29.65
2022-08-17T09:09:04.282Z,29.68
2022-08-17T09:12:13.988Z,29.80
2022-08-17T09:15:22.048Z,30.09
2022-08-17T09:19:01.044Z,30.07
2022-08-17T09:22:24.968Z,30.51
2022-08-17T09:25:31.325Z,30.46
2022-08-17T09:28:36.684Z,30.42
2022-08-17T09:31:57.922Z,30.43
2022-08-17T09:35:05.907Z,30.55
2022-08-17T09:38:23.201Z,31.04
2022-08-17T09:41:40.016Z,30.75
2022-08-17T09:45:07.852Z,30.96
2022-08-17T09:48:25.424Z,30.96
2022-08-17T09:51:40.173Z,30.05
2022-08-17T09:54:42.486Z,31.17
2022-08-17T09:57:49.434Z,30.95
2022-08-17T10:00:57.804Z,31.06
2022-08-17T10:04:23.774Z,31.35
2022-08-17T10:07:41.125Z,31.88
2022-08-17T10:11:07.848Z,31.58
2022-08-17T10:14:37.747Z,32.31
2022-08-17T10:18:10.724Z,32.38
2022-08-17T10:21:34.140Z,32.50
2022-08-17T10:25:22.286Z,32.67
2022-08-17T10:28:39.509Z,32.35
2022-08-17T10:31:50.388Z,32.03
2022-08-17T10:34:58.198Z,32.43
2022-08-17T10:37:59.856Z,31.87
2022-08-17T10:41:15.732Z,32.47
2022-08-17T10:44:41.207Z,32.70
2022-08-17T10:48:04.318Z,32.54
2022-08-17T10:51:12.810Z,32.19
2022-08-17T10:54:45.563Z,32.19
2022-08-17T10:57:50.203Z,32.19
2022-08-17T11:00:52.447Z,32.43
2022-08-17T11:03:57.564Z,32.85
2022-08-17T11:07:08.194Z,32.96
2022-08-17T11:10:13.469Z,32.71
2022-08-17T11:13:44.986Z,33.01
2022-08-17T11:16:58.816Z,32.55
2022-08-17T11:20:28.346Z,32.57
2022-08-17T11:23:30.051Z,33.51
2022-08-17T11:26:35.115Z,33.28
2022-08-17T11:30:06.374Z,32.56
2022-08-17T11:33:29.758Z,31.99
2022-08-17T11:37:04.237Z,32.30
2022-08-17T11:40:38.586Z,33.07
2022-08-17T11:43:59.117Z,33.56
2022-08-17T11:47:53.027Z,33.37
2022-08-17T11:51:34.998Z,34.10
2022-08-17T11:54:46.569Z,34.35
2022-08-17T11:58:01.543Z,34.04
2022-08-17T12:01:22.666Z,33.80
2022-08-17T12:04:31.686Z,34.00
2022-08-17T12:07:42.048Z,33.37
2022-08-17T12:11:19.004Z,33.70
2022-08-17T12:18:19.126Z,33.05
2022-08-17T12:21:23.710Z,33.07
2022-08-17T12:24:36.811Z,33.52
2022-08-17T12:28:04.765Z,33.25
2022-08-17T12:31:15.932Z,33.72
2022-08-17T12:34:21.837Z,34.02
2022-08-17T12:37:31.593Z,34.07
2022-08-17T12:40:33.503Z,33.80
2022-08-17T12:43:35.266Z,33.22
2022-08-17T12:46:56.396Z,33.20
2022-08-17T12:50:29.207Z,33.28
2022-08-17T12:53:35.455Z,33.83
2022-08-17T12:56:37.393Z,33.92
2022-08-17T12:59:50.476Z,34.04
2022-08-17T13:02:58.200Z,34.09
2022-08-17T13:06:01.598Z,33.29
2022-08-17T13:09:19.212Z,33.52
2022-08-17T13:12:33.898Z,33.46
2022-08-17T13:15:51.680Z,33.41
2022-08-17T13:19:08.956Z,33.97
2022-08-17T13:22:12.935Z,34.33
2022-08-17T13:25:16.964Z,34.61
2022-08-17T13:28:30.646Z,34.21
2022-08-17T13:31:51.821Z,33.67
2022-08-17T13:35:12.031Z,33.72
2022-08-17T13:38:53.267Z,34.14
2022-08-17T13:41:56.096Z,33.56
2022-08-17T13:44:59.044Z,33.77
2022-08-17T13:48:30.182Z,34.31
2022-08-17T13:51:42.466Z,34.45
2022-08-17T13:54:51.321Z,34.46
2022-08-17T13:58:06.762Z,34.38
2022-08-17T14:01:53.162Z,34.47
2022-08-17T14:04:57.306Z,34.55
2022-08-17T14:08:06.978Z,34.44
2022-08-17T14:11:09.015Z,34.55
2022-08-17T14:14:13.510Z,33.83
2022-08-17T14:17:15.364Z,33.80
2022-08-17T14:20:20.081Z,34.07
2022-08-17T14:23:21.833Z,33.33
2022-08-17T14:26:23.809Z,33.26
2022-08-17T14:29:28.209Z,33.94
2022-08-17T14:32:33.147Z,34.26
2022-08-17T14:35:35.024Z,34.05
2022-08-17T14:38:37.903Z,34.27
2022-08-17T14:41:41.390Z,34.33
2022-08-17T14:44:43.162Z,34.09
2022-08-17T14:47:44.995Z,33.80
2022-08-17T14:50:46.769Z,33.95
2022-08-17T14:53:49.503Z,34.00
2022-08-17T14:56:51.371Z,33.95
2022-08-17T15:00:13.844Z,33.89
2022-08-17T15:03:17.141Z,33.75
2022-08-17T15:06:18.907Z,33.70
2022-08-17T15:09:20.671Z,33.80
2022-08-17T15:12:26.443Z,33.86
2022-08-17T15:15:34.218Z,33.84
2022-08-17T15:18:36.612Z,33.83
2022-08-17T15:21:38.386Z,33.83
2022-08-17T15:24:40.101Z,33.68
2022-08-17T15:27:42.555Z,33.51
2022-08-17T15:30:45.230Z,33.42
2022-08-17T15:33:46.968Z,33.36
2022-08-17T15:36:49.471Z,33.75
2022-08-17T15:39:51.844Z,33.99
2022-08-17T15:42:54.295Z,33.44
2022-08-17T15:46:20.453Z,33.21
2022-08-17T15:49:22.619Z,33.37
2022-08-17T15:52:26.613Z,33.13
2022-08-17T15:55:30.609Z,32.77
2022-08-17T15:58:34.033Z,32.42
2022-08-17T16:03:01.639Z,32.22
2022-08-17T16:05:11.160Z,32.07
2022-08-17T16:08:20.699Z,32.14
2022-08-17T16:11:23.067Z,32.20
2022-08-17T16:14:33.652Z,32.28
2022-08-17T16:17:38.851Z,32.19
2022-08-17T16:20:43.452Z,32.12
2022-08-17T16:23:46.251Z,32.32
2022-08-17T16:26:48.113Z,32.31
2022-08-17T16:29:52.032Z,32.19
2022-08-17T16:32:59.809Z,32.21
2022-08-17T16:36:01.542Z,32.16
2022-08-17T16:39:03.531Z,31.93
2022-08-17T16:42:26.344Z,31.71
2022-08-17T16:45:36.351Z,31.42
2022-08-17T16:48:38.135Z,31.26
2022-08-17T16:51:40.272Z,31.04
2022-08-17T16:54:44.446Z,30.77
2022-08-17T16:57:50.239Z,30.57
2022-08-17T17:00:52.534Z,30.34
2022-08-17T17:03:58.999Z,30.16
2022-08-17T17:07:16.800Z,29.98
2022-08-17T17:10:35.949Z,29.84
2022-08-17T17:13:44.426Z,29.66
2022-08-17T17:17:06.140Z,29.52
2022-08-17T17:20:21.741Z,29.31
2022-08-17T17:23:34.326Z,29.07
2022-08-17T17:26:53.503Z,28.77
2022-08-17T17:30:25.184Z,28.61
2022-08-17T17:33:40.385Z,28.66
2022-08-17T17:36:46.230Z,28.45
2022-08-17T17:39:51.887Z,28.18
2022-08-17T17:43:00.038Z,28.00
2022-08-17T17:46:39.888Z,27.77
2022-08-17T17:49:44.150Z,27.60
2022-08-17T17:52:48.440Z,27.49
2022-08-17T17:56:29.665Z,27.30
2022-08-17T17:59:54.168Z,27.15
2022-08-17T18:03:17.552Z,27.00
2022-08-17T18:06:46.509Z,26.86
2022-08-17T18:09:50.971Z,26.73
2022-08-17T18:13:10.192Z,26.59
2022-08-17T18:16:14.112Z,26.48
2022-08-17T18:19:21.257Z,26.39
2022-08-17T18:22:23.940Z,26.23
2022-08-17T18:25:49.692Z,26.10
2022-08-17T18:28:52.868Z,25.96
2022-08-17T18:32:20.502Z,25.84
2022-08-17T18:35:28.271Z,25.73
2022-08-17T18:38:37.326Z,25.63
2022-08-17T18:41:45.471Z,25.53
2022-08-17T18:44:49.581Z,25.44
2022-08-17T18:47:55.465Z,25.37
2022-08-17T18:51:02.141Z,25.29
2022-08-17T18:54:22.554Z,25.20
2022-08-17T18:57:55.600Z,25.06
2022-08-17T19:00:57.405Z,24.91
2022-08-17T19:03:59.786Z,24.81
2022-08-17T19:07:08.139Z,24.78
2022-08-17T19:10:24.567Z,24.70
2022-08-17T19:13:32.529Z,24.61
2022-08-17T19:16:43.372Z,24.50
2022-08-17T19:20:05.189Z,24.37
2022-08-17T19:23:23.775Z,24.23
2022-08-17T19:26:53.474Z,24.12
2022-08-17T19:29:50.850Z,24.06
2022-08-17T19:32:53.141Z,23.97
2022-08-17T19:36:25.680Z,23.89
2022-08-17T19:39:40.248Z,23.82
2022-08-17T19:42:53.324Z,23.74
2022-08-17T19:46:07.683Z,23.65
2022-08-17T19:49:33.770Z,23.56
2022-08-17T19:53:13.866Z,23.45
2022-08-17T19:56:37.501Z,23.40
2022-08-17T20:00:05.000Z,23.29
2022-08-17T20:03:25.494Z,23.23
2022-08-17T20:06:32.993Z,23.18
2022-08-17T20:09:39.002Z,23.12
2022-08-17T20:12:44.567Z,23.13
2022-08-17T20:15:46.943Z,23.09
2022-08-17T20:19:12.494Z,23.01
2022-08-17T20:22:50.352Z,22.98
2022-08-17T20:25:59.283Z,22.93
2022-08-17T20:29:14.855Z,22.90
2022-08-17T20:32:26.152Z,22.89
2022-08-17T20:35:38.360Z,22.85
2022-08-17T20:38:47.761Z,22.81
2022-08-17T20:42:21.896Z,22.82
2022-08-17T20:45:24.311Z,22.84
2022-08-17T20:48:38.655Z,22.83
2022-08-17T20:52:07.739Z,22.80
2022-08-17T20:55:51.791Z,22.80
2022-08-17T20:58:54.523Z,22.79
2022-08-17T21:02:06.659Z,22.69
2022-08-17T21:05:59.737Z,22.40
2022-08-17T21:09:15.680Z,22.33
2022-08-17T21:12:50.189Z,22.13
2022-08-17T21:16:00.661Z,22.04
2022-08-17T21:20:00.245Z,21.79
2022-08-17T21:23:22.631Z,21.63
2022-08-17T21:26:38.939Z,21.59
2022-08-17T21:30:01.769Z,21.49
2022-08-17T21:33:16.924Z,21.35
2022-08-17T21:36:24.320Z,21.25
2022-08-17T21:39:39.342Z,21.18
2022-08-17T21:42:52.746Z,21.06
2022-08-17T21:46:02.207Z,21.02
2022-08-17T21:49:13.848Z,20.97
2022-08-17T21:52:19.890Z,20.94
2022-08-17T21:55:24.442Z,20.89
2022-08-17T21:58:33.319Z,20.84
2022-08-17T22:01:40.215Z,20.82
2022-08-17T22:04:43.100Z,20.75
2022-08-17T22:07:50.905Z,20.72
2022-08-17T22:11:01.144Z,20.68
2022-08-17T22:14:05.992Z,20.73
2022-08-17T22:17:34.363Z,20.66
2022-08-17T22:20:36.217Z,20.66
2022-08-17T22:23:59.769Z,20.69
2022-08-17T22:27:12.946Z,20.65
2022-08-17T22:30:19.854Z,20.61
2022-08-17T22:33:33.605Z,20.53
2022-08-17T22:36:40.458Z,20.45
2022-08-17T22:39:42.428Z,20.37
2022-08-17T22:42:49.787Z,20.35
2022-08-17T22:45:54.563Z,20.28
2022-08-17T22:48:59.464Z,20.23
2022-08-17T22:52:05.172Z,20.18
2022-08-17T22:55:33.247Z,20.14
2022-08-17T22:59:00.272Z,20.05
2022-08-17T23:02:23.139Z,19.98
2022-08-17T23:05:25.503Z,19.95
2022-08-17T23:08:27.259Z,19.88
2022-08-17T23:11:42.831Z,19.86
2022-08-17T23:14:58.426Z,19.82
2022-08-17T23:18:04.869Z,19.78
2022-08-17T23:21:07.705Z,19.68
2022-08-17T23:24:10.868Z,19.62
2022-08-17T23:27:12.727Z,19.56
2022-08-17T23:30:14.523Z,19.48
2022-08-17T23:33:21.344Z,19.48
2022-08-17T23:36:23.685Z,19.43
2022-08-17T23:39:28.185Z,19.38
2022-08-17T23:42:30.174Z,19.38
2022-08-17T23:45:32.142Z,19.35
2022-08-17T23:48:36.694Z,19.23
2022-08-17T23:51:43.925Z,19.16
2022-08-17T23:54:47.348Z,19.08
2022-08-17T23:57:49.325Z,18.92
